Terminal Aerodrome Forecast
Issued by NWS

Home | Current Version | Previous Version | Text Only | Print | Product List | Glossary On
Versions: 1 2 3 4 5 6 7 8 9 10 11 12 13 14 15 16 17
000
FTUS42 TJSJ 230634 AAA
TAFJSJ
TAF AMD
TJSJ 230634Z 2307/2406 VRB04KT P6SM SCT025 SCT060
      TEMPO 2307/2309 -RA BKN025 BKN035
     FM231400 08010KT P6SM FEW030
     FM232100 10006KT P6SM FEW030=

USA.gov is the U.S. government's official web portal to all federal, state and local government web resources and services.